Time;durP1;ratioP1;P1;durP2;ratioP2;P2;SDS_P1;SDS_P2;PMS_P1;PMS_P2;Temp;Humidity;BMP_temperature;BMP_pressure;BME280_temperature;BME280_humidity;BME280_pressure;Samples;Min_cycle;Max_cycle;Signal;HPM_P1;HPM_P2
2023/06/05 00:00:24;;;;;;;;;;;;;;;23.65;45.56;100226.44;4442480;32;34756;-88
2023/06/05 00:02:51;;;;;;;;;;;;;;;23.87;45.34;100231.69;4442515;32;34873;-88
2023/06/05 00:05:18;;;;;;;;;;;;;;;24.60;43.72;100224.38;4441009;32;34119;-88
2023/06/05 00:07:46;;;;;;;;;;;;;;;23.34;45.76;100226.47;4455528;32;32727;-88
2023/06/05 00:10:13;;;;;;;;;;;;;;;24.53;43.65;100213.81;4454486;32;34278;-89
2023/06/05 00:12:41;;;;;;;;;;;;;;;24.64;43.47;100220.81;4455124;32;33195;-89
2023/06/05 00:15:08;;;;;;;;;;;;;;;23.26;46.28;100222.09;4454512;32;33896;-89
2023/06/05 00:17:36;;;;;;;;;;;;;;;21.28;52.31;100230.87;4442397;32;32288;-89
2023/06/05 00:20:05;;;;;;;;;;;;;;;20.72;54.39;100224.22;4454456;32;34969;-90
2023/06/05 00:22:37;;;;;;;;;;;;;;;21.19;53.11;100226.44;4455834;32;34549;-89
2023/06/05 00:25:05;;;;;;;;;;;;;;;20.46;54.82;100221.31;4454129;32;33358;-89
2023/06/05 00:27:32;;;;;;;;;;;;;;;21.64;51.77;100229.44;4454666;32;33384;-89
2023/06/05 00:30:00;;;;;;;;;;;;;;;22.51;49.26;100217.56;4468021;32;33328;-89
2023/06/05 00:32:29;;;;;;;;;;;;;;;22.56;48.95;100221.97;4455060;32;33908;-89
2023/06/05 00:34:56;;;;;;;;;;;;;;;22.60;48.89;100219.31;4440972;32;33984;-88
2023/06/05 00:37:25;;;;;;;;;;;;;;;21.47;52.13;100231.06;4468877;32;31760;-89
2023/06/05 00:39:52;;;;;;;;;;;;;;;22.93;48.44;100224.66;4428797;32;32440;-90
2023/06/05 00:42:19;;;;;;;;;;;;;;;22.67;48.97;100221.09;4452452;32;34101;-88
2023/06/05 00:44:48;;;;;;;;;;;;;;;24.45;44.98;100226.16;4439463;32;32914;-88
2023/06/05 00:47:16;;;;;;;;;;;;;;;23.38;47.11;100226.47;4453174;32;34080;-89
2023/06/05 00:49:44;;;;;;;;;;;;;;;24.23;44.88;100221.88;4439485;32;35065;-89
2023/06/05 00:52:12;;;;;;;;;;;;;;;24.81;43.36;100218.94;4429642;32;34341;-88
2023/06/05 00:54:39;;;;;;;;;;;;;;;24.33;44.17;100220.94;4424038;32;33191;-88
2023/06/05 00:57:07;;;;;;;;;;;;;;;24.08;44.80;100223.69;4467160;32;33221;-89
2023/06/05 00:59:36;;;;;;;;;;;;;;;24.73;43.38;100220.75;4454815;32;33844;-88
2023/06/05 01:02:04;;;;;;;;;;;;;;;23.54;46.02;100222.91;4442183;32;35117;-88
2023/06/05 01:04:32;;;;;;;;;;;;;;;23.38;46.50;100222.06;4454664;32;34955;-88
2023/06/05 01:07:01;;;;;;;;;;;;;;;23.58;46.32;100224.66;4428988;32;33066;-88
2023/06/05 01:09:30;;;;;;;;;;;;;;;23.67;46.00;100222.03;4431636;32;34500;-89
2023/06/05 01:12:06;;;;;;;;;;;;;;;23.56;46.50;100221.16;4452033;32;35023;-89
2023/06/05 01:14:34;;;;;;;;;;;;;;;22.97;48.10;100215.00;4455658;32;34873;-89
2023/06/05 01:17:02;;;;;;;;;;;;;;;23.27;47.52;100219.41;4456471;32;33272;-88
2023/06/05 01:19:31;;;;;;;;;;;;;;;22.75;48.80;100214.97;4433208;32;35103;-89
2023/06/05 01:21:59;;;;;;;;;;;;;;;22.62;49.32;100209.63;4450763;32;35100;-89
2023/06/05 01:24:27;;;;;;;;;;;;;;;22.85;48.91;100215.88;4452404;32;34585;-90
2023/06/05 01:27:00;;;;;;;;;;;;;;;22.59;49.57;100207.88;4424531;32;32615;-89
2023/06/05 01:29:35;;;;;;;;;;;;;;;22.57;49.43;100214.91;4466601;32;34128;-89
2023/06/05 01:32:06;;;;;;;;;;;;;;;23.07;48.03;100210.63;4455409;32;34079;-88
2023/06/05 01:34:34;;;;;;;;;;;;;;;22.95;48.77;100212.34;4465679;32;35076;-90
2023/06/05 01:37:01;;;;;;;;;;;;;;;23.27;47.91;100207.97;4450903;32;33492;-89
2023/06/05 01:39:28;;;;;;;;;;;;;;;23.05;48.39;100217.69;4440059;32;32228;-89
2023/06/05 01:41:56;;;;;;;;;;;;;;;22.50;50.06;100213.13;4439790;32;34135;-88
2023/06/05 01:44:24;;;;;;;;;;;;;;;22.99;48.96;100212.38;4443699;32;34321;-88
2023/06/05 01:46:51;;;;;;;;;;;;;;;23.40;47.78;100216.78;4456196;32;33227;-89
2023/06/05 01:49:20;;;;;;;;;;;;;;;22.60;49.64;100219.31;4443275;32;33548;-90
2023/06/05 01:51:47;;;;;;;;;;;;;;;20.72;55.33;100218.09;4438842;32;33815;-90
2023/06/05 01:54:15;;;;;;;;;;;;;;;21.47;53.71;100224.03;4434701;32;33874;-89
2023/06/05 01:56:43;;;;;;;;;;;;;;;22.51;50.62;100210.50;4439889;32;32336;-89
2023/06/05 01:59:11;;;;;;;;;;;;;;;22.19;51.32;100216.53;4455226;32;33942;-89
2023/06/05 02:01:38;;;;;;;;;;;;;;;21.74;52.22;100223.34;4431413;32;32514;-88
2023/06/05 02:04:06;;;;;;;;;;;;;;;22.65;49.92;100209.66;4428722;32;32999;-89
2023/06/05 02:06:41;;;;;;;;;;;;;;;22.79;49.66;100210.56;4442661;32;32920;-89
2023/06/05 02:09:10;;;;;;;;;;;;;;;22.77;49.64;100212.31;4429799;32;32698;-90
2023/06/05 02:11:37;;;;;;;;;;;;;;;23.04;49.29;100210.63;4442454;32;34493;-88
2023/06/05 02:14:06;;;;;;;;;;;;;;;22.47;51.03;100208.75;4442311;32;33757;-90
2023/06/05 02:16:34;;;;;;;;;;;;;;;22.26;51.88;100219.22;4448231;32;33564;-90
2023/06/05 02:19:03;;;;;;;;;;;;;;;21.51;54.39;100217.91;4452868;32;33859;-89
2023/06/05 02:21:32;;;;;;;;;;;;;;;20.84;55.87;100223.47;4448082;32;33801;-90
2023/06/05 02:23:59;;;;;;;;;;;;;;;22.25;52.01;100212.19;4455612;32;33745;-90
2023/06/05 02:26:27;;;;;;;;;;;;;;;21.46;53.81;100221.38;4447512;32;34226;-88
2023/06/05 02:28:55;;;;;;;;;;;;;;;22.17;51.96;100220.94;4470006;32;33924;-89
2023/06/05 02:31:28;;;;;;;;;;;;;;;22.84;50.43;100214.09;4460114;32;33850;-90
2023/06/05 02:33:57;;;;;;;;;;;;;;;23.34;49.02;100220.31;4456061;32;34141;-89
2023/06/05 02:36:24;;;;;;;;;;;;;;;23.25;49.32;100210.59;4445749;32;33309;-88
2023/06/05 02:38:53;;;;;;;;;;;;;;;23.57;48.31;100215.00;4455048;32;34945;-88
2023/06/05 02:41:21;;;;;;;;;;;;;;;24.21;46.22;100210.44;4441290;32;32482;-88
2023/06/05 02:43:48;;;;;;;;;;;;;;;23.56;47.06;100210.56;4468936;32;34056;-90
2023/06/05 02:46:16;;;;;;;;;;;;;;;23.14;48.63;100207.09;4438326;32;32470;-90
2023/06/05 02:48:44;;;;;;;;;;;;;;;22.49;50.66;100212.25;4447696;32;34192;-89
2023/06/05 02:51:12;;;;;;;;;;;;;;;22.33;51.54;100215.75;4453119;32;32682;-90
2023/06/05 02:53:39;;;;;;;;;;;;;;;22.44;51.28;100218.41;4447681;32;34857;-89
2023/06/05 02:56:07;;;;;;;;;;;;;;;22.43;51.69;100212.25;4455803;32;32772;-90
2023/06/05 02:58:34;;;;;;;;;;;;;;;24.12;47.17;100206.91;4460604;32;33907;-88
2023/06/05 03:01:02;;;;;;;;;;;;;;;24.75;45.29;100203.09;4453475;32;34855;-89
2023/06/05 03:03:30;;;;;;;;;;;;;;;23.81;47.43;100200.84;4470478;32;33734;-88
2023/06/05 03:06:04;;;;;;;;;;;;;;;23.52;47.57;100195.59;4455483;32;33955;-89
2023/06/05 03:08:33;;;;;;;;;;;;;;;23.72;46.81;100207.03;4443832;32;32615;-89
2023/06/05 03:11:00;;;;;;;;;;;;;;;22.91;49.36;100200.03;4451108;32;34375;-88
2023/06/05 03:13:27;;;;;;;;;;;;;;;22.47;51.05;100198.19;4467818;32;33996;-87
2023/06/05 03:15:56;;;;;;;;;;;;;;;22.19;51.97;100203.34;4442768;32;33128;-89
2023/06/05 03:18:25;;;;;;;;;;;;;;;21.55;53.61;100208.28;4436323;32;33796;-88
2023/06/05 03:20:57;;;;;;;;;;;;;;;20.49;56.75;100200.25;4460476;32;34274;-87
2023/06/05 03:23:25;;;;;;;;;;;;;;;20.13;58.46;100201.62;4447972;32;34771;-88
2023/06/05 03:25:53;;;;;;;;;;;;;;;20.55;57.65;100205.63;4452510;32;33257;-87
2023/06/05 03:28:21;;;;;;;;;;;;;;;21.08;56.14;100206.16;4467590;32;34196;-88
2023/06/05 03:30:49;;;;;;;;;;;;;;;22.52;51.88;100195.53;4464732;32;35033;-88
2023/06/05 03:33:17;;;;;;;;;;;;;;;23.05;50.24;100196.53;4440123;32;32160;-89
2023/06/05 03:35:48;;;;;;;;;;;;;;;22.57;51.57;100193.81;4438420;32;31816;-88
2023/06/05 03:38:16;;;;;;;;;;;;;;;22.11;53.56;100199.78;4441726;32;33368;-87
2023/06/05 03:40:43;;;;;;;;;;;;;;;21.76;54.13;100207.53;4462094;32;34173;-89
2023/06/05 03:43:11;;;;;;;;;;;;;;;21.35;56.35;100211.62;4453404;32;33109;-88
2023/06/05 03:45:42;;;;;;;;;;;;;;;20.41;59.47;100212.47;4469424;32;34024;-89
2023/06/05 03:48:09;;;;;;;;;;;;;;;20.08;61.10;100208.56;4455037;32;34461;-88
2023/06/05 03:50:38;;;;;;;;;;;;;;;19.53;63.25;100218.28;4454609;32;34716;-88
2023/06/05 03:53:07;;;;;;;;;;;;;;;19.65;62.63;100221.09;4450646;32;34055;-89
2023/06/05 03:55:41;;;;;;;;;;;;;;;20.61;59.17;100216.25;4441691;32;34079;-87
2023/06/05 03:58:13;;;;;;;;;;;;;;;21.83;55.15;100219.87;4446364;32;33599;-88
2023/06/05 04:00:42;;;;;;;;;;;;;;;22.84;51.90;100216.72;4444511;32;34059;-88
2023/06/05 04:03:13;;;;;;;;;;;;;;;23.93;49.98;100226.38;4439170;32;31738;-89
2023/06/05 04:05:40;;;;;;;;;;;;;;;24.48;48.63;100215.56;4424565;32;32034;-88
2023/06/05 04:08:11;;;;;;;;;;;;;;;25.25;45.44;100215.09;4442095;32;33876;-88
2023/06/05 04:10:40;;;;;;;;;;;;;;;25.33;45.52;100222.09;4452344;32;34479;-89
2023/06/05 04:13:07;;;;;;;;;;;;;;;25.68;44.94;100219.97;4451553;32;33606;-89
2023/06/05 04:15:35;;;;;;;;;;;;;;;25.50;45.36;100213.09;4465226;32;34254;-88
2023/06/05 04:18:03;;;;;;;;;;;;;;;25.79;44.87;100221.66;4442532;32;34403;-89
2023/06/05 04:20:32;;;;;;;;;;;;;;;25.14;46.08;100216.91;4451022;32;34125;-88
2023/06/05 04:22:59;;;;;;;;;;;;;;;25.59;44.58;100220.06;4438846;32;34099;-89
2023/06/05 04:25:28;;;;;;;;;;;;;;;25.66;43.97;100221.75;4454769;32;33951;-89
2023/06/05 04:27:57;;;;;;;;;;;;;;;24.85;45.85;100220.66;4454514;32;33960;-87
2023/06/05 04:30:29;;;;;;;;;;;;;;;24.93;45.64;100217.97;4456727;32;34038;-88
2023/06/05 04:32:57;;;;;;;;;;;;;;;23.98;48.51;100227.25;4447150;32;34018;-88
2023/06/05 04:35:26;;;;;;;;;;;;;;;23.00;51.06;100219.38;4438688;32;32929;-89
2023/06/05 04:37:54;;;;;;;;;;;;;;;23.90;48.74;100221.13;4440128;32;34109;-87
2023/06/05 04:40:21;;;;;;;;;;;;;;;23.49;50.40;100230.00;4467735;32;34480;-88
2023/06/05 04:42:49;;;;;;;;;;;;;;;22.99;51.58;100228.22;4454210;32;34816;-87
2023/06/05 04:45:17;;;;;;;;;;;;;;;23.34;51.12;100226.47;4450539;32;33727;-87
2023/06/05 04:47:45;;;;;;;;;;;;;;;23.86;49.75;100224.66;4452772;32;33999;-88
2023/06/05 04:50:29;;;;;;;;;;;;;;;23.59;50.25;100220.28;4438765;32;33184;-87
2023/06/05 04:52:58;;;;;;;;;;;;;;;23.96;49.46;100221.09;4467807;32;34407;-89
2023/06/05 04:55:26;;;;;;;;;;;;;;;23.86;49.41;100222.03;4454314;32;31672;-88
2023/06/05 04:57:54;;;;;;;;;;;;;;;24.14;48.38;100215.75;4438844;32;32643;-87
2023/06/05 05:00:23;;;;;;;;;;;;;;;24.30;48.28;100226.28;4434438;32;33479;-88
2023/06/05 05:02:50;;;;;;;;;;;;;;;24.44;47.78;100221.78;4426862;32;31775;-87
2023/06/05 05:05:19;;;;;;;;;;;;;;;23.53;51.78;100227.34;4445035;32;33154;-88
2023/06/05 05:07:47;;;;;;;;;;;;;;;24.33;50.36;100221.81;4453425;32;33924;-89
2023/06/05 05:10:15;;;;;;;;;;;;;;;24.90;48.52;100221.53;4445283;32;34050;-88
2023/06/05 05:12:42;;;;;;;;;;;;;;;24.87;48.70;100221.53;4459804;32;34201;-90
2023/06/05 05:15:10;;;;;;;;;;;;;;;25.35;47.32;100217.66;4468689;32;33189;-89
2023/06/05 05:17:37;;;;;;;;;;;;;;;25.27;47.82;100218.59;4440218;32;33712;-90
2023/06/05 05:20:06;;;;;;;;;;;;;;;25.37;47.65;100216.75;4428074;32;32908;-90
2023/06/05 05:22:36;;;;;;;;;;;;;;;25.18;48.10;100213.34;4447196;32;34245;-88
2023/06/05 05:25:03;;;;;;;;;;;;;;;25.34;47.61;100213.25;4447309;32;32950;-89
2023/06/05 05:27:31;;;;;;;;;;;;;;;25.67;47.09;100214.69;4444741;32;34705;-87
2023/06/05 05:29:59;;;;;;;;;;;;;;;25.97;44.83;100216.16;4454217;32;33955;-89
2023/06/05 05:32:26;;;;;;;;;;;;;;;25.78;44.63;100220.75;4445479;32;32785;-88
2023/06/05 05:34:54;;;;;;;;;;;;;;;25.62;43.68;100222.69;4452731;32;34083;-87
2023/06/05 05:37:22;;;;;;;;;;;;;;;25.84;43.34;100227.78;4444591;32;33558;-88
2023/06/05 05:39:49;;;;;;;;;;;;;;;25.41;43.55;100221.13;4465226;32;35047;-88
2023/06/05 05:42:17;;;;;;;;;;;;;;;26.03;42.40;100224.03;4448662;32;33301;-89
2023/06/05 05:44:44;;;;;;;;;;;;;;;25.89;41.89;100228.59;4451966;32;33575;-89
2023/06/05 05:47:11;;;;;;;;;;;;;;;25.68;41.86;100221.75;4463270;32;34713;-88
2023/06/05 05:49:39;;;;;;;;;;;;;;;25.69;41.63;100221.75;4443043;32;33177;-89
2023/06/05 05:52:06;;;;;;;;;;;;;;;25.55;41.87;100218.34;4452672;32;33825;-90
2023/06/05 05:54:33;;;;;;;;;;;;;;;25.43;42.02;100218.47;4431809;32;32407;-90
2023/06/05 05:57:01;;;;;;;;;;;;;;;25.52;41.55;100213.09;4467489;32;35051;-88
2023/06/05 05:59:28;;;;;;;;;;;;;;;24.77;43.16;100206.59;4452497;32;34331;-88
2023/06/05 06:01:59;;;;;;;;;;;;;;;25.42;41.62;100211.41;4443504;32;34244;-89
2023/06/05 06:04:26;;;;;;;;;;;;;;;24.86;42.90;100206.53;4456053;32;33018;-89
2023/06/05 06:06:56;;;;;;;;;;;;;;;25.27;41.82;100208.00;4437372;32;34280;-88
2023/06/05 06:09:24;;;;;;;;;;;;;;;25.55;40.88;100213.03;4434277;32;32450;-89
2023/06/05 06:11:55;;;;;;;;;;;;;;;25.68;40.36;100214.66;4451772;32;34476;-87
2023/06/05 06:14:23;;;;;;;;;;;;;;;25.39;40.72;100206.13;4456421;32;33009;-89
2023/06/05 06:16:50;;;;;;;;;;;;;;;25.10;41.25;100208.09;4455971;32;34771;-90
2023/06/05 06:19:23;;;;;;;;;;;;;;;24.71;42.23;100211.94;4450450;32;32610;-89
2023/06/05 06:21:51;;;;;;;;;;;;;;;24.41;42.71;100203.25;4441855;32;33682;-88
2023/06/05 06:24:22;;;;;;;;;;;;;;;24.05;44.17;100206.94;4449394;32;32912;-90
2023/06/05 06:26:49;;;;;;;;;;;;;;;24.29;42.81;100203.31;4451972;32;34510;-90
2023/06/05 06:29:23;;;;;;;;;;;;;;;24.85;41.82;100203.91;4466563;32;34631;-89
2023/06/05 06:31:51;;;;;;;;;;;;;;;24.78;42.11;100203.03;4455260;32;33921;-89
2023/06/05 06:34:18;;;;;;;;;;;;;;;24.93;42.07;100207.38;4441937;32;32933;-87
2023/06/05 06:36:46;;;;;;;;;;;;;;;24.33;43.44;100208.56;4439622;32;34194;-88
2023/06/05 06:39:14;;;;;;;;;;;;;;;24.64;42.71;100210.22;4440599;32;32468;-87
2023/06/05 06:41:41;;;;;;;;;;;;;;;24.44;43.94;100208.53;4466727;32;33899;-88
2023/06/05 06:44:08;;;;;;;;;;;;;;;25.00;42.79;100218.81;4450805;32;33362;-90
2023/06/05 06:46:36;;;;;;;;;;;;;;;25.61;41.49;100204.13;4435263;32;34993;-87
2023/06/05 06:49:03;;;;;;;;;;;;;;;25.41;41.48;100218.47;4448870;32;33257;-89
2023/06/05 06:51:32;;;;;;;;;;;;;;;24.90;42.66;100212.69;4433935;32;33821;-88
2023/06/05 06:54:00;;;;;;;;;;;;;;;24.39;43.79;100210.31;4433579;32;34178;-87
2023/06/05 06:56:27;;;;;;;;;;;;;;;23.97;44.97;100200.81;4452928;32;34098;-88
2023/06/05 06:58:55;;;;;;;;;;;;;;;24.27;44.54;100210.37;4450305;32;33284;-90
2023/06/05 07:01:24;;;;;;;;;;;;;;;24.62;44.03;100209.34;4451178;32;34088;-87
2023/06/05 07:03:52;;;;;;;;;;;;;;;24.50;44.29;100202.31;4441207;32;33418;-87
2023/06/05 07:06:21;;;;;;;;;;;;;;;24.18;45.24;100205.12;4443143;32;34046;-89
2023/06/05 07:08:50;;;;;;;;;;;;;;;24.73;44.26;100210.16;4433725;32;34767;-88
2023/06/05 07:11:17;;;;;;;;;;;;;;;24.40;44.56;100212.09;4437198;32;32796;-89
2023/06/05 07:13:44;;;;;;;;;;;;;;;25.24;42.83;100207.16;4443075;32;32100;-88
2023/06/05 07:16:12;;;;;;;;;;;;;;;25.50;42.85;100214.88;4444361;32;34187;-89
2023/06/05 07:18:40;;;;;;;;;;;;;;;25.76;41.96;100217.25;4450980;32;33798;-87
2023/06/05 07:21:07;;;;;;;;;;;;;;;25.29;43.13;100215.94;4448707;32;33608;-88
2023/06/05 07:23:36;;;;;;;;;;;;;;;24.82;43.87;100212.75;4449265;32;32875;-88
2023/06/05 07:26:04;;;;;;;;;;;;;;;24.79;44.32;100215.41;4446857;32;33264;-89
2023/06/05 07:28:31;;;;;;;;;;;;;;;25.58;42.64;100220.97;4454281;32;33982;-89
2023/06/05 07:31:03;;;;;;;;;;;;;;;25.80;42.54;100223.41;4434974;32;33215;-89
2023/06/05 07:33:30;;;;;;;;;;;;;;;26.47;41.02;100217.28;4455631;32;31608;-87
2023/06/05 07:35:58;;;;;;;;;;;;;;;26.28;41.31;100226.41;4454774;32;34201;-89
2023/06/05 07:38:26;;;;;;;;;;;;;;;26.52;41.00;100229.63;4453470;32;34907;-89
2023/06/05 07:40:53;;;;;;;;;;;;;;;26.80;39.77;100225.69;4454705;32;34065;-89
2023/06/05 07:43:21;;;;;;;;;;;;;;;26.32;40.77;100228.13;4439060;32;32844;-89
2023/06/05 07:45:49;;;;;;;;;;;;;;;26.20;41.00;100228.28;4469577;32;34877;-89
2023/06/05 07:48:16;;;;;;;;;;;;;;;26.88;39.73;100218.47;4442638;32;34278;-89
2023/06/05 07:50:43;;;;;;;;;;;;;;;27.01;39.55;100228.94;4463447;32;34664;-88
2023/06/05 07:53:11;;;;;;;;;;;;;;;26.84;39.99;100224.75;4467356;32;33176;-89
2023/06/05 07:55:38;;;;;;;;;;;;;;;26.97;39.62;100221.91;4458569;32;34985;-88
2023/06/05 07:58:05;;;;;;;;;;;;;;;26.83;39.66;100225.66;4460799;32;34565;-88
2023/06/05 08:00:33;;;;;;;;;;;;;;;25.87;42.18;100225.97;4455449;32;34216;-91
2023/06/05 08:03:02;;;;;;;;;;;;;;;26.15;41.15;100230.97;4451502;32;33809;-90
2023/06/05 08:05:30;;;;;;;;;;;;;;;26.85;40.16;100223.84;4444605;32;33799;-89
2023/06/05 08:07:57;;;;;;;;;;;;;;;26.90;39.96;100225.56;4465992;32;34898;-88
2023/06/05 08:10:24;;;;;;;;;;;;;;;26.75;40.11;100222.22;4447046;32;35110;-90
2023/06/05 08:12:52;;;;;;;;;;;;;;;27.22;39.03;100225.91;4435781;32;32933;-88
2023/06/05 08:15:19;;;;;;;;;;;;;;;27.29;39.16;100224.06;4468431;32;34230;-90
2023/06/05 08:17:47;;;;;;;;;;;;;;;27.09;39.32;100227.03;4468777;32;36168;-89
2023/06/05 08:20:15;;;;;;;;;;;;;;;27.28;39.20;100230.28;4440506;32;32403;-89
2023/06/05 08:22:42;;;;;;;;;;;;;;;27.54;38.74;100224.50;4450657;32;32975;-90
2023/06/05 08:25:10;;;;;;;;;;;;;;;27.24;39.45;100232.12;4444644;32;33042;-91
2023/06/05 08:27:37;;;;;;;;;;;;;;;27.41;39.24;100229.19;4454204;32;33746;-89
2023/06/05 08:30:05;;;;;;;;;;;;;;;27.60;38.28;100239.47;4440073;32;32333;-88
2023/06/05 08:32:32;;;;;;;;;;;;;;;27.48;38.46;100234.38;4458160;32;33182;-89
2023/06/05 08:35:00;;;;;;;;;;;;;;;27.16;38.97;100228.69;4428715;32;32507;-92
2023/06/05 08:37:28;;;;;;;;;;;;;;;27.64;38.45;100226.09;4465849;32;33906;-92
2023/06/05 08:39:58;;;;;;;;;;;;;;;27.94;37.90;100234.44;4439598;32;33984;-91
2023/06/05 08:42:28;;;;;;;;;;;;;;;27.25;39.18;100233.00;4442787;32;32004;-94
2023/06/05 08:44:56;;;;;;;;;;;;;;;27.06;39.64;100235.03;4441781;32;34408;-90
2023/06/05 08:47:31;;;;;;;;;;;;;;;27.36;39.15;100235.47;4449446;32;34676;-91
2023/06/05 08:50:00;;;;;;;;;;;;;;;27.93;38.52;100237.13;4425710;32;32412;-91
2023/06/05 08:52:29;;;;;;;;;;;;;;;27.50;39.01;100230.78;4447401;32;33180;-91
2023/06/05 08:54:57;;;;;;;;;;;;;;;27.67;38.82;100240.25;4447862;32;33990;-90
2023/06/05 08:57:24;;;;;;;;;;;;;;;27.76;38.56;100232.97;4463814;32;34645;-90
2023/06/05 08:59:52;;;;;;;;;;;;;;;27.77;38.20;100231.19;4441233;32;34331;-90
2023/06/05 09:02:19;;;;;;;;;;;;;;;28.01;38.09;100222.75;4454092;32;33357;-91
2023/06/05 09:04:47;;;;;;;;;;;;;;;27.93;38.07;100226.47;4452954;32;31345;-90
2023/06/05 09:07:14;;;;;;;;;;;;;;;28.16;37.93;100226.91;4467431;32;33685;-92
2023/06/05 09:09:42;;;;;;;;;;;;;;;28.15;38.09;100224.25;4454783;32;34016;-91
2023/06/05 09:12:10;;;;;;;;;;;;;;;27.91;38.72;100225.62;4429665;32;32128;-93
2023/06/05 09:14:37;;;;;;;;;;;;;;;28.33;37.92;100220.31;4452481;32;32590;-89
2023/06/05 09:17:06;;;;;;;;;;;;;;;28.51;37.93;100219.03;4476066;32;35234;-90
2023/06/05 09:19:37;;;;;;;;;;;;;;;28.02;38.15;100216.50;4453155;32;34907;-90
2023/06/05 09:22:06;;;;;;;;;;;;;;;28.04;38.04;100209.38;4475422;32;33577;-89
2023/06/05 09:24:34;;;;;;;;;;;;;;;28.39;36.97;100210.41;4456534;32;33889;-90
2023/06/05 09:27:06;;;;;;;;;;;;;;;28.36;37.21;100213.16;4471040;32;33895;-90
2023/06/05 09:29:34;;;;;;;;;;;;;;;28.18;37.03;100213.53;4467554;32;34537;-89
2023/06/05 09:32:08;;;;;;;;;;;;;;;28.06;37.27;100213.78;4461364;32;33883;-90
2023/06/05 09:34:36;;;;;;;;;;;;;;;28.39;36.37;100217.53;4472590;32;33667;-90
2023/06/05 09:37:04;;;;;;;;;;;;;;;28.99;35.59;100210.81;4471135;32;34529;-92
2023/06/05 09:39:33;;;;;;;;;;;;;;;28.93;35.94;100217.19;4434101;32;34626;-90
2023/06/05 09:42:00;;;;;;;;;;;;;;;29.11;35.15;100218.53;4470359;32;32854;-93
2023/06/05 09:44:28;;;;;;;;;;;;;;;29.16;34.85;100216.66;4468757;32;35250;-93
2023/06/05 09:46:59;;;;;;;;;;;;;;;29.63;34.34;100223.47;4462876;32;33074;-90
2023/06/05 09:49:39;;;;;;;5.05;2.40;;;;;;;29.79;33.71;100209.69;4462817;32;34279;-92
2023/06/05 09:52:10;;;;;;;5.25;2.42;;;;;;;29.84;33.47;100211.34;4459569;32;33504;-91
2023/06/05 09:54:41;;;;;;;8.15;2.53;;;;;;;30.51;32.48;100197.81;4433464;32;33953;-94
2023/06/05 09:57:30;;;;;;;6.35;2.37;;;;;;;30.15;31.81;100197.97;4439619;32;33931;-91
2023/06/05 10:00:04;;;;;;;5.12;2.45;;;;;;;29.72;32.60;100201.84;4452235;32;33804;-90
2023/06/05 10:02:35;;;;;;;4.85;2.20;;;;;;;29.84;30.60;100193.53;4442563;32;31661;-90
2023/06/05 10:05:04;;;;;;;7.97;2.33;;;;;;;30.20;30.41;100188.03;4450792;32;33048;-90
2023/06/05 10:07:34;;;;;;;7.50;2.62;;;;;;;30.56;30.81;100190.53;4455215;32;33665;-91
2023/06/05 10:10:03;;;;;;;4.82;2.22;;;;;;;30.68;30.40;100179.44;4467651;32;34838;-91
2023/06/05 10:12:31;;;;;;;5.80;2.30;;;;;;;30.55;30.55;100183.44;4455053;32;32939;-91
2023/06/05 10:14:58;;;;;;;;;;;;;;;31.37;27.96;100184.31;4456128;32;32716;-90
2023/06/05 10:17:26;;;;;;;;;;;;;;;31.15;27.94;100174.34;4458028;32;34649;-92
2023/06/05 10:19:54;;;;;;;;;;;;;;;31.83;27.95;100171.94;4456281;32;34742;-89
2023/06/05 10:22:21;;;;;;;8.27;2.67;;;;;;;30.89;29.50;100172.56;4468690;32;33637;-92
2023/06/05 10:24:59;;;;;;;7.30;3.00;;;;;;;31.67;28.63;100160.06;4459960;32;33696;-90
2023/06/05 10:27:50;;;;;;;8.25;2.45;;;;;;;31.82;28.50;100164.84;4449090;32;33494;-90
2023/06/05 10:30:29;;;;;;;5.15;2.40;;;;;;;32.04;27.56;100161.41;4446613;32;34542;-91
2023/06/05 10:33:12;;;;;;;5.97;2.30;;;;;;;32.57;27.42;100155.78;4448215;32;33353;-90
2023/06/05 10:35:52;;;;;;;5.62;2.03;;;;;;;32.16;27.34;100152.00;4453894;32;33541;-90
2023/06/05 10:38:25;;;;;;;8.02;2.40;;;;;;;31.71;27.49;100151.00;4442831;32;32451;-90
2023/06/05 10:40:58;;;;;;;5.43;2.12;;;;;;;32.63;26.38;100147.47;4449509;32;33781;-90
2023/06/05 10:43:27;;;;;;;5.47;2.10;;;;;;;32.56;24.49;100150.44;4447573;32;33418;-92
2023/06/05 10:45:56;;;;;;;5.53;2.30;;;;;;;32.62;26.17;100145.69;4454892;32;33909;-89
2023/06/05 10:49:19;;;;;;;6.80;2.03;;;;;;;32.15;25.84;100150.28;4450280;32;32946;-90
2023/06/05 10:51:49;;;;;;;6.20;2.15;;;;;;;32.00;25.35;100151.69;4430020;32;33825;-91
2023/06/05 10:54:21;;;;;;;4.55;1.73;;;;;;;31.45;24.71;100150.13;4450602;32;32023;-89
2023/06/05 10:56:52;;;;;;;4.53;2.05;;;;;;;32.71;23.69;100156.06;4468051;32;33960;-89
2023/06/05 10:59:22;;;;;;;7.45;1.87;;;;;;;32.65;23.72;100145.59;4442517;32;32992;-92
2023/06/05 11:02:08;;;;;;;4.82;1.90;;;;;;;33.52;22.82;100142.81;4438592;32;32336;-92
2023/06/05 11:04:49;;;;;;;11.05;3.05;;;;;;;32.26;23.75;100138.19;4452163;32;31878;-92
2023/06/05 11:07:26;;;;;;;;;;;;;;;31.71;24.42;100135.78;4451876;32;32404;-91
2023/06/05 11:10:06;;;;;;;;;;;;;;;32.04;23.87;100131.91;4437822;32;34517;-90
2023/06/05 11:12:35;;;;;;;;;;;;;;;31.79;24.79;100135.50;4437268;32;35345;-90
2023/06/05 11:15:03;;;;;;;;;;;;;;;31.62;24.63;100140.59;4449695;32;33843;-89
2023/06/05 11:17:32;;;;;;;;;;;;;;;32.60;23.88;100136.84;4440030;32;33197;-89
2023/06/05 11:20:00;;;;;;;;;;;;;;;33.45;22.97;100134.12;4430379;32;33284;-89
2023/06/05 11:22:29;;;;;;;;;;;;;;;32.68;24.05;100140.12;4442519;32;34950;-88
2023/06/05 11:25:20;;;;;;;;;;;;;;;32.25;24.90;100131.06;4442898;32;33084;-88
2023/06/05 11:27:49;;;;;;;;;;;;;;;33.18;23.67;100132.69;4450095;32;33262;-90
2023/06/05 11:30:17;;;;;;;;;;;;;;;33.07;24.27;100135.78;4433356;32;32829;-91
2023/06/05 11:33:08;;;;;;;;;;;;;;;33.16;24.81;100134.56;4448008;32;34771;-93
2023/06/05 11:35:37;;;;;;;;;;;;;;;33.71;23.81;100126.75;4442018;32;32282;-91
2023/06/05 11:38:08;;;;;;;;;;;;;;;32.70;24.90;100127.50;4436355;32;32688;-90
2023/06/05 11:40:36;;;;;;;;;;;;;;;33.89;24.39;100111.59;4445380;32;33872;-88
2023/06/05 11:43:05;;;;;;;;;;;;;;;33.19;25.75;100127.25;4434057;32;33412;-88
2023/06/05 11:45:33;;;;;;;;;;;;;;;33.08;25.66;100121.44;4445854;32;33336;-88
2023/06/05 11:48:10;;;;;;;;;;;;;;;32.54;26.42;100118.31;4447814;32;33702;-89
2023/06/05 11:50:39;;;;;;;;;;;;;;;33.21;26.09;100113.78;4424635;32;33996;-90
2023/06/05 11:53:06;;;;;;;;;;;;;;;33.78;26.14;100106.69;4437711;32;33381;-93
2023/06/05 11:55:54;;;;;;;;;;;;;;;33.23;26.34;100117.25;4432797;32;33048;-88
2023/06/05 11:58:24;;;;;;;;;;;;;;;32.86;27.50;100108.94;4447337;32;32872;-89
2023/06/05 12:00:52;;;;;;;;;;;;;;;32.29;27.27;100105.88;4437934;32;34922;-93
2023/06/05 12:03:28;;;;;;;;;;;;;;;31.84;28.28;100098.72;4427460;32;32680;-88
2023/06/05 12:05:57;;;;;;;;;;;;;;;31.32;28.72;100100.63;4457168;32;32773;-91
2023/06/05 12:08:25;;;;;;;;;;;;;;;32.77;26.78;100097.75;4438678;32;32463;-90
2023/06/05 12:10:52;;;;;;;;;;;;;;;32.96;27.21;100101.37;4451234;32;34867;-89
2023/06/05 12:13:20;;;;;;;;;;;;;;;32.37;27.73;100096.66;4432677;32;33348;-92
2023/06/05 12:15:57;;;;;;;;;;;;;;;31.77;28.92;100090.97;4436955;32;33635;-91
2023/06/05 12:18:32;;;;;;;;;;;;;;;32.29;27.98;100089.81;4426380;32;31989;-90
2023/06/05 12:21:00;;;;;;;;;;;;;;;32.38;27.51;100087.72;4451065;32;34784;-92
2023/06/05 12:23:28;;;;;;;;;;;;;;;32.11;28.09;100080.72;4433264;32;34652;-87
2023/06/05 12:26:03;;;;;;;;;;;;;;;33.22;26.95;100081.47;4435739;32;31516;-86
2023/06/05 12:28:31;;;;;;;;;;;;;;;32.79;27.99;100082.44;4450338;32;34319;-88
2023/06/05 12:30:58;;;;;;;;;;;;;;;32.98;27.92;100083.41;4467133;32;34147;-90
2023/06/05 12:33:25;;;;;;;;;;;;;;;32.56;27.73;100076.25;4438055;32;33466;-87
2023/06/05 12:36:03;;;;;;;;;;;;;;;32.62;26.63;100070.63;4462784;32;33300;-90
2023/06/05 12:38:30;;;;;;;;;;;;;;;31.13;28.33;100070.97;4440364;32;33970;-92
2023/06/05 12:40:59;;;;;;;;;;;;;;;31.40;28.69;100074.44;4439275;32;33462;-90